Andover, Vermont
Current Conditions -  °F | °C
As of 10:54 AM on Saturday 25 Oct 2014 (Local Time) from KVSF Reporting Station
Clear Clear  
Wind Chill: 11°   Ceiling: Unl
Heat Index: 11°   Visibility: 10mi
Dew Point:   Wind: 0mph
Humidity: 71%   Direction: NA
Pressure: 29.73"   Gusts: NA
Location:  43.2811°N, 72.6352°W
Report Text: KVSF 251454Z AUTO 00000KT 10SM CLR 11/06 A2973 RMK AO2 SLP071 T01110061 58018
Loading
Personal Weather Stations






























Interactive Weather Map
Tropical Storm Tracking
New forecast layout! Learn more

10-Day Weather Forecast

Advertisements
Track Severe Weather on mobile